Weather reports worldwide

Advertisment
Aonach Mor, United Kingdom (3041): temperature & dewpoint: 15.01.2017 02:00:00 - 21.01.2017 02:00:00 (GMT)Aonach Mor, United Kingdom (3041): wind speed & gusts: 15.01.2017 02:00:00 - 21.01.2017 02:00:00 (GMT)Aonach Mor, United Kingdom (3041): wind direction: 15.01.2017 02:00:00 - 21.01.2017 02:00:00 (GMT)
Date & Time tt [°C] td [°C] ff [km/h] ff [kn] fx [km/h] fx [kn] dd
21.01.2017 02:00:00 - - - - - - -
21.01.2017 01:00:00 1,9 -0,5 37 20 52 28 S
21.01.2017 00:00:00 2,8 -0,8 39 21 55 30 SSW
20.01.2017 23:00:00 5,2 -5,6 39 21 59 32 S
20.01.2017 22:00:00 5,7 -1,5 44 24 55 30 SSE
20.01.2017 21:00:00 4,8 -1,4 41 22 50 27 SSE
20.01.2017 20:00:00 4,7 -3,0 37 20 48 26 SSE
20.01.2017 19:00:00 5,3 -2,1 31 17 - - SSE
20.01.2017 18:00:00 5,8 -1,1 29 16 - - SE
20.01.2017 17:00:00 5,8 -0,9 24 13 - - SE
20.01.2017 16:00:00 5,8 -3,5 26 14 - - SSE
20.01.2017 15:00:00 7,1 -3,9 5 3 - - S
20.01.2017 14:00:00 7,0 -3,0 9 5 - - S
20.01.2017 13:00:00 6,3 -1,2 4 2 - - S
20.01.2017 12:00:00 6,6 -2,4 8 4 - - S
20.01.2017 11:00:00 6,8 0,1 13 7 - - SSW
20.01.2017 10:00:00 6,4 1,3 15 8 - - SSW
20.01.2017 09:00:00 5,3 4,0 15 8 - - SW
20.01.2017 08:00:00 6,1 4,8 22 12 - - SSW
20.01.2017 07:00:00 6,0 4,9 22 12 - - SSW
20.01.2017 06:00:00 5,2 3,2 21 11 - - SSW
20.01.2017 05:00:00 4,0 4,0 21 11 - - SW
20.01.2017 04:00:00 4,6 4,6 22 12 - - SW
20.01.2017 03:00:00 5,2 5,2 24 13 - - SW
20.01.2017 02:00:00 2,9 2,9 18 10 - - SW
20.01.2017 01:00:00 2,4 2,4 15 8 - - SW
20.01.2017 00:00:00 2,1 2,1 13 7 - - SSW
19.01.2017 23:00:00 2,6 2,6 16 9 - - SSW
19.01.2017 22:00:00 2,0 2,0 15 8 - - S
19.01.2017 21:00:00 2,2 2,2 13 7 - - SSW
19.01.2017 20:00:00 1,9 - 15 8 - - S
19.01.2017 19:00:00 0,6 0,6 15 8 - - S
19.01.2017 18:00:00 0,1 0,1 15 8 - - SW
19.01.2017 17:00:00 0,1 0,1 18 10 - - SSW
19.01.2017 16:00:00 0,0 -0,1 18 10 - - SSW
19.01.2017 15:00:00 -0,1 -21,9 18 10 - - SW
19.01.2017 14:00:00 -0,2 -0,3 28 15 46 25 SW
19.01.2017 13:00:00 -0,3 -0,3 29 16 46 25 SW
19.01.2017 12:00:00 -0,2 -0,3 29 16 46 25 SW
19.01.2017 11:00:00 0,1 - 24 13 50 27 WSW
19.01.2017 10:00:00 -0,1 -0,3 31 17 46 25 SW
19.01.2017 09:00:00 -0,1 -0,3 26 14 50 27 SW
19.01.2017 08:00:00 -0,1 -10,7 26 14 55 30 SW
19.01.2017 07:00:00 0,0 -21,9 29 16 50 27 WSW
19.01.2017 06:00:00 0,2 - 26 14 55 30 WSW
19.01.2017 05:00:00 0,3 - 16 9 48 26 W
19.01.2017 04:00:00 0,5 - 22 12 52 28 WSW
19.01.2017 03:00:00 0,5 - 28 15 50 27 WSW
19.01.2017 02:00:00 0,6 - 18 10 48 26 WSW
19.01.2017 01:00:00 0,7 - 21 11 59 32 WSW
19.01.2017 00:00:00 0,9 - 26 14 59 32 SSW
18.01.2017 23:00:00 1,2 - 28 15 55 30 SW
18.01.2017 22:00:00 2,2 - 34 18 70 38 WSW
18.01.2017 21:00:00 0,7 - 35 19 61 33 SW
18.01.2017 20:00:00 0,8 - 41 22 61 33 SW
18.01.2017 19:00:00 0,9 - 28 15 65 35 WSW
18.01.2017 18:00:00 1,0 - 37 20 65 35 SSW
18.01.2017 17:00:00 1,0 - 34 18 65 35 SW
18.01.2017 16:00:00 1,0 - 29 16 65 35 SW
18.01.2017 15:00:00 1,0 - 35 19 74 40 SW
18.01.2017 14:00:00 0,9 - 44 24 76 41 SW
18.01.2017 13:00:00 0,7 - 42 23 80 43 SW
18.01.2017 12:00:00 0,6 -21,5 52 28 80 43 SW
18.01.2017 11:00:00 0,5 - 52 28 91 49 SW
18.01.2017 10:00:00 0,5 - 59 32 91 49 SW
18.01.2017 09:00:00 0,3 - 52 28 87 47 SW
18.01.2017 08:00:00 0,6 - 52 28 80 43 SSW
18.01.2017 07:00:00 0,5 - 48 26 93 50 SW
18.01.2017 06:00:00 -0,1 -21,8 65 35 100 54 SSW
18.01.2017 05:00:00 -0,1 - 63 34 93 50 SW
18.01.2017 04:00:00 -0,2 - 67 36 94 51 SW
18.01.2017 03:00:00 0,0 - 63 34 107 58 SW
18.01.2017 02:00:00 0,3 - 63 34 106 57 SW
18.01.2017 01:00:00 0,5 - 63 34 104 56 SSW
18.01.2017 00:00:00 0,7 - 76 41 120 65 SSW
17.01.2017 23:00:00 3,5 - 68 37 115 62 SSW
17.01.2017 22:00:00 2,9 - 52 28 113 61 SSW
17.01.2017 21:00:00 3,4 - 63 34 100 54 SSW
17.01.2017 20:00:00 2,0 - 67 36 98 53 SW
17.01.2017 19:00:00 2,0 - 70 38 96 52 SW
17.01.2017 18:00:00 2,5 - 70 38 94 51 SW
17.01.2017 17:00:00 3,0 - 72 39 94 51 SW
17.01.2017 16:00:00 3,2 - 63 34 91 49 SW
17.01.2017 15:00:00 3,5 - 52 28 81 44 SW
17.01.2017 14:00:00 3,8 - 55 30 80 43 SW
17.01.2017 13:00:00 4,3 - 34 18 55 30 SW
17.01.2017 12:00:00 4,5 - 29 16 50 27 SW
17.01.2017 11:00:00 4,8 - 34 18 52 28 SW
17.01.2017 10:00:00 4,5 - 28 15 - - SSW
17.01.2017 09:00:00 5,3 - 22 12 - - SW
17.01.2017 08:00:00 5,2 - 24 13 - - SW
17.01.2017 07:00:00 5,6 - 31 17 46 25 WSW
17.01.2017 06:00:00 5,8 - 28 15 46 25 WSW
17.01.2017 05:00:00 5,6 - 31 17 - - WSW
17.01.2017 04:00:00 5,6 - 26 14 52 28 WSW
17.01.2017 03:00:00 5,5 - 39 21 54 29 WSW
17.01.2017 02:00:00 5,9 - 42 23 65 35 WSW
17.01.2017 01:00:00 5,8 - 41 22 55 30 WSW
17.01.2017 00:00:00 5,6 - 41 22 54 29 WSW
16.01.2017 23:00:00 5,5 - 35 19 54 29 SW
16.01.2017 22:00:00 5,4 - 31 17 50 27 SW
16.01.2017 21:00:00 5,2 - 29 16 52 28 SW
16.01.2017 20:00:00 5,1 - 31 17 63 34 SW
16.01.2017 19:00:00 4,9 - 29 16 54 29 SW
16.01.2017 18:00:00 4,6 - 29 16 52 28 SW
16.01.2017 17:00:00 4,6 - 31 17 - - SW
16.01.2017 16:00:00 3,9 - 34 18 46 25 WSW
16.01.2017 15:00:00 3,9 - 34 18 - - WSW
16.01.2017 14:00:00 3,7 - 31 17 - - WSW
16.01.2017 13:00:00 3,1 - 24 13 - - WSW
16.01.2017 12:00:00 2,9 - 22 12 - - WSW
16.01.2017 11:00:00 2,6 - 29 16 - - WSW
16.01.2017 10:00:00 2,4 - 31 17 - - WSW
16.01.2017 09:00:00 2,3 - 34 18 - - WSW
16.01.2017 08:00:00 2,1 - 34 18 - - WSW
16.01.2017 07:00:00 1,9 - 31 17 - - WSW
16.01.2017 06:00:00 2,0 - 35 19 - - WSW
16.01.2017 05:00:00 2,3 - 31 17 - - WSW
16.01.2017 04:00:00 2,6 - 22 12 - - WSW
16.01.2017 03:00:00 3,4 - 28 15 - - WSW
16.01.2017 02:00:00 3,7 - 22 12 - - WSW
16.01.2017 01:00:00 3,3 - 22 12 - - WSW
16.01.2017 00:00:00 3,5 - 22 12 - - WSW
15.01.2017 23:00:00 4,2 - 18 10 - - WSW
15.01.2017 22:00:00 4,4 - 16 9 - - WNW
15.01.2017 21:00:00 3,2 - 16 9 - - W
15.01.2017 20:00:00 3,4 - 16 9 - - W
15.01.2017 19:00:00 3,1 - 24 13 - - WSW
15.01.2017 18:00:00 3,1 - 26 14 - - WSW
15.01.2017 17:00:00 2,9 - 21 11 - - WSW
15.01.2017 16:00:00 2,9 - 26 14 - - WSW
15.01.2017 15:00:00 2,8 - 15 8 - - W
15.01.2017 14:00:00 2,7 - 15 8 - - W
15.01.2017 13:00:00 2,8 - 18 10 - - WNW
15.01.2017 12:00:00 2,7 - 22 12 - - WNW
15.01.2017 11:00:00 2,7 - 24 13 - - WNW
15.01.2017 10:00:00 2,6 - 22 12 - - WNW
15.01.2017 09:00:00 2,6 - 21 11 - - W
15.01.2017 08:00:00 2,5 - 21 11 - - W
15.01.2017 07:00:00 2,4 - 22 12 - - W
15.01.2017 06:00:00 2,1 - 24 13 - - W
15.01.2017 05:00:00 2,1 - 31 17 57 31 W
15.01.2017 04:00:00 2,0 - 35 19 50 27 WSW
15.01.2017 03:00:00 0,5 - 31 17 50 27 WSW
15.01.2017 02:00:00 0,0 -0,4 31 17 78 42 WSW

tt = temperature
td = dewpoint
ff = wind speed
fx = gusts
dd = wind direction

Next stations